createdAt,value
2019-05-07T00:01:58.115Z,67.37
2019-05-07T00:04:26.921Z,66.17
2019-05-07T00:06:55.554Z,66.93
2019-05-07T00:09:24.212Z,65.99
2019-05-07T00:11:53.475Z,66.88
2019-05-07T00:14:23.229Z,66.54
2019-05-07T00:16:53.426Z,66.15
2019-05-07T00:19:23.180Z,66.30
2019-05-07T00:21:52.795Z,65.83
2019-05-07T00:24:22.364Z,66.45
2019-05-07T00:26:53.199Z,65.69
2019-05-07T00:29:22.405Z,66.26
2019-05-07T00:31:52.084Z,65.77
2019-05-07T00:34:22.528Z,67.69
2019-05-07T00:36:58.794Z,66.95
2019-05-07T00:39:29.069Z,66.90
2019-05-07T00:42:15.739Z,66.68
2019-05-07T00:44:57.956Z,66.75
2019-05-07T00:47:26.532Z,66.42
2019-05-07T00:49:56.795Z,65.42
2019-05-07T00:52:25.455Z,65.82
2019-05-07T00:54:54.109Z,65.24
2019-05-07T00:57:22.949Z,65.22
2019-05-07T00:59:52.466Z,65.28
2019-05-07T01:02:22.919Z,64.40
2019-05-07T01:04:53.206Z,65.70
2019-05-07T01:07:22.915Z,65.69
2019-05-07T01:09:52.453Z,65.05
2019-05-07T01:12:22.263Z,64.43
2019-05-07T01:14:52.897Z,64.80
2019-05-07T01:17:22.743Z,64.75
2019-05-07T01:19:53.256Z,64.80
2019-05-07T01:22:22.376Z,64.37
2019-05-07T01:24:52.770Z,63.48
2019-05-07T01:27:22.596Z,64.35
2019-05-07T01:29:52.802Z,64.89
2019-05-07T01:32:32.976Z,64.38
2019-05-07T01:35:09.201Z,64.08
2019-05-07T01:37:37.755Z,64.97
2019-05-07T01:40:06.686Z,64.52
2019-05-07T01:42:36.693Z,64.79
2019-05-07T01:45:07.721Z,64.54
2019-05-07T01:47:36.408Z,64.86
2019-05-07T01:50:05.526Z,65.30
2019-05-07T01:52:34.264Z,64.80
2019-05-07T01:55:03.414Z,63.89
2019-05-07T01:57:32.767Z,63.84
2019-05-07T02:00:02.639Z,64.17
2019-05-07T02:02:33.096Z,64.10
2019-05-07T02:05:06.301Z,63.13
2019-05-07T02:07:36.490Z,62.13
2019-05-07T02:10:14.127Z,63.21
2019-05-07T02:12:43.031Z,62.63
2019-05-07T02:15:12.077Z,63.31
2019-05-07T02:17:42.839Z,62.29
2019-05-07T02:20:13.064Z,62.35
2019-05-07T02:22:42.713Z,63.09
2019-05-07T02:25:12.672Z,63.10
2019-05-07T02:27:42.227Z,63.23
2019-05-07T02:30:14.428Z,63.34
2019-05-07T02:32:43.358Z,64.08
2019-05-07T02:35:13.638Z,63.41
2019-05-07T02:37:51.089Z,63.63
2019-05-07T02:40:16.061Z,64.83
2019-05-07T02:42:44.691Z,63.36
2019-05-07T02:45:32.935Z,64.22
2019-05-07T02:48:03.256Z,63.91
2019-05-07T02:50:38.494Z,63.94
2019-05-07T02:53:18.220Z,64.64
2019-05-07T02:55:58.001Z,65.46
2019-05-07T02:58:26.821Z,63.92
2019-05-07T03:00:57.022Z,63.67
2019-05-07T03:03:25.849Z,63.56
2019-05-07T03:05:54.763Z,64.91
2019-05-07T03:08:27.577Z,63.80
2019-05-07T03:10:55.987Z,65.55
2019-05-07T03:13:24.770Z,65.47
2019-05-07T03:15:55.206Z,66.01
2019-05-07T03:18:25.460Z,66.64
2019-05-07T03:20:58.312Z,66.25
2019-05-07T03:23:34.075Z,67.12
2019-05-07T03:26:09.755Z,65.82
2019-05-07T03:28:53.121Z,66.05
2019-05-07T03:31:27.396Z,65.61
2019-05-07T03:34:06.879Z,65.38
2019-05-07T03:36:39.706Z,66.17
2019-05-07T03:39:09.795Z,65.40
2019-05-07T03:41:38.831Z,66.03
2019-05-07T03:44:24.715Z,64.75
2019-05-07T03:47:02.149Z,64.51
2019-05-07T03:49:34.516Z,64.26
2019-05-07T03:52:04.393Z,64.31
2019-05-07T03:54:34.183Z,63.93
2019-05-07T03:57:10.660Z,63.89
2019-05-07T03:59:34.787Z,63.57
2019-05-07T04:02:06.615Z,63.38
2019-05-07T04:04:35.436Z,63.38
2019-05-07T04:07:04.390Z,63.42
2019-05-07T04:09:33.599Z,63.29
2019-05-07T04:12:03.896Z,62.33
2019-05-07T04:14:34.371Z,61.02
2019-05-07T04:17:14.207Z,61.40
2019-05-07T04:19:33.733Z,61.96
2019-05-07T04:22:04.247Z,60.73
2019-05-07T04:24:37.377Z,59.88
2019-05-07T04:27:13.088Z,59.39
2019-05-07T04:29:42.948Z,58.81
2019-05-07T04:32:15.127Z,59.93
2019-05-07T04:34:45.422Z,59.93
2019-05-07T04:37:14.664Z,58.58
2019-05-07T04:39:55.362Z,59.09
2019-05-07T04:42:24.637Z,57.84
2019-05-07T04:44:54.161Z,58.25
2019-05-07T04:47:34.725Z,58.25
2019-05-07T04:49:55.177Z,58.14
2019-05-07T04:52:36.168Z,58.77
2019-05-07T04:55:06.322Z,57.74
2019-05-07T04:57:35.083Z,57.74
2019-05-07T05:00:05.207Z,57.69
2019-05-07T05:02:38.261Z,57.79
2019-05-07T05:05:06.983Z,57.40
2019-05-07T05:07:35.885Z,57.65
2019-05-07T05:10:07.411Z,57.41
2019-05-07T05:12:36.136Z,57.13
2019-05-07T05:16:02.419Z,56.48
2019-05-07T05:22:31.804Z,56.23
2019-05-07T05:31:22.844Z,55.38
2019-05-07T05:34:49.193Z,53.87
2019-05-07T05:38:13.873Z,53.94
2019-05-07T05:47:06.431Z,50.26
2019-05-07T05:53:15.870Z,49.33
2019-05-07T06:19:05.515Z,44.20
2019-05-07T06:31:57.435Z,45.59
2019-05-07T06:34:57.335Z,45.52
2019-05-07T06:40:55.991Z,46.47
2019-05-07T06:43:57.908Z,46.18
2019-05-07T06:59:28.415Z,46.85
2019-05-07T07:09:32.955Z,47.20
2019-05-07T07:18:48.628Z,49.19
2019-05-07T07:34:29.218Z,50.89
2019-05-07T07:37:47.976Z,51.11
2019-05-07T07:53:04.161Z,50.37
2019-05-07T08:08:24.952Z,47.51
2019-05-07T08:11:26.273Z,45.26
2019-05-07T08:18:07.458Z,45.17
2019-05-07T08:21:19.619Z,45.82
2019-05-07T08:30:52.591Z,44.53
2019-05-07T08:37:12.115Z,43.98
2019-05-07T08:52:17.972Z,48.29
2019-05-07T08:55:33.289Z,48.38
2019-05-07T08:58:43.622Z,48.96
2019-05-07T09:01:44.751Z,48.24
2019-05-07T09:05:09.318Z,48.62
2019-05-07T09:08:21.741Z,48.63
2019-05-07T09:11:56.044Z,49.10
2019-05-07T09:15:12.435Z,49.56
2019-05-07T09:18:23.032Z,48.44
2019-05-07T09:24:42.716Z,48.44
2019-05-07T09:45:05.206Z,50.13
2019-05-07T09:57:58.648Z,48.08
2019-05-07T10:01:12.880Z,49.31
2019-05-07T10:04:13.297Z,49.15
2019-05-07T10:07:05.854Z,49.80
2019-05-07T10:16:07.896Z,50.85
2019-05-07T10:19:17.700Z,50.59
2019-05-07T10:22:24.772Z,49.45
2019-05-07T10:25:37.777Z,49.03
2019-05-07T10:34:25.050Z,51.49
2019-05-07T10:36:53.950Z,51.77
2019-05-07T10:39:22.581Z,50.70
2019-05-07T10:41:51.317Z,50.40
2019-05-07T10:44:22.878Z,50.90
2019-05-07T10:47:09.374Z,51.19
2019-05-07T10:49:39.657Z,50.84
2019-05-07T10:52:08.301Z,50.84
2019-05-07T10:54:36.963Z,50.27
2019-05-07T10:57:05.631Z,50.98
2019-05-07T10:59:34.282Z,50.32
2019-05-07T11:02:07.288Z,52.09
2019-05-07T11:04:42.281Z,51.36
2019-05-07T11:07:06.432Z,50.88
2019-05-07T11:09:35.062Z,51.17
2019-05-07T11:12:03.779Z,50.59
2019-05-07T11:14:32.499Z,50.36
2019-05-07T11:17:02.770Z,50.33
2019-05-07T11:19:32.471Z,50.26
2019-05-07T11:22:01.202Z,52.28
2019-05-07T11:24:31.992Z,52.30
2019-05-07T11:27:02.313Z,52.24
2019-05-07T11:29:32.774Z,52.53
2019-05-07T11:32:01.265Z,52.76
2019-05-07T11:34:32.737Z,53.21
2019-05-07T11:37:02.439Z,53.21
2019-05-07T11:39:33.205Z,54.40
2019-05-07T11:42:12.736Z,54.40
2019-05-07T11:44:42.411Z,54.57
2019-05-07T11:47:22.498Z,55.52
2019-05-07T11:50:09.139Z,56.32
2019-05-07T11:52:48.550Z,55.98
2019-05-07T11:55:17.278Z,55.98
2019-05-07T11:57:45.942Z,57.36
2019-05-07T12:00:21.861Z,56.48
2019-05-07T12:02:51.424Z,58.14
2019-05-07T12:05:22.551Z,58.14
2019-05-07T12:07:50.593Z,57.10
2019-05-07T12:10:19.243Z,57.10
2019-05-07T12:12:47.888Z,56.54
2019-05-07T12:15:17.052Z,56.22
2019-05-07T12:17:45.727Z,56.27
2019-05-07T12:20:16.013Z,56.27
2019-05-07T12:22:48.105Z,55.61
2019-05-07T12:25:19.232Z,55.06
2019-05-07T12:27:49.561Z,56.47
2019-05-07T12:30:33.169Z,56.03
2019-05-07T12:33:06.283Z,57.62
2019-05-07T12:35:37.664Z,56.89
2019-05-07T12:38:06.394Z,57.25
2019-05-07T12:40:36.254Z,57.31
2019-05-07T12:43:04.918Z,57.40
2019-05-07T12:45:34.045Z,57.40
2019-05-07T12:48:02.741Z,56.93
2019-05-07T12:50:32.859Z,56.93
2019-05-07T12:53:03.385Z,56.75
2019-05-07T12:55:52.127Z,56.75
2019-05-07T12:58:21.849Z,56.89
2019-05-07T13:00:52.206Z,55.62
2019-05-07T13:03:22.530Z,55.62
2019-05-07T13:05:52.088Z,57.23
2019-05-07T13:08:22.977Z,57.23
2019-05-07T13:10:52.045Z,57.00
2019-05-07T13:13:20.776Z,58.13
2019-05-07T13:15:51.657Z,58.13
2019-05-07T13:18:20.068Z,58.51
2019-05-07T13:20:48.963Z,57.75
2019-05-07T13:23:17.629Z,58.51
2019-05-07T13:25:46.319Z,58.12
2019-05-07T13:28:15.234Z,58.12
2019-05-07T13:30:44.017Z,58.14
2019-05-07T13:33:13.508Z,58.92
2019-05-07T13:35:44.358Z,58.88
2019-05-07T13:38:14.653Z,58.88
2019-05-07T13:40:52.717Z,58.99
2019-05-07T13:43:23.179Z,59.17
2019-05-07T13:45:59.759Z,59.37
2019-05-07T13:48:28.675Z,60.15
2019-05-07T13:50:57.623Z,60.55
2019-05-07T13:53:26.352Z,60.74
2019-05-07T13:55:55.012Z,61.32
2019-05-07T13:58:24.284Z,60.89
2019-05-07T14:01:02.076Z,61.08
2019-05-07T14:03:32.914Z,61.38
2019-05-07T14:06:01.717Z,61.71
2019-05-07T14:08:33.344Z,62.42
2019-05-07T14:11:02.754Z,62.55
2019-05-07T14:13:31.628Z,62.73
2019-05-07T14:16:07.424Z,63.30
2019-05-07T14:18:37.792Z,62.47
2019-05-07T14:21:07.236Z,63.46
2019-05-07T14:23:36.291Z,63.71
2019-05-07T14:26:05.287Z,63.21
2019-05-07T14:28:34.019Z,63.18
2019-05-07T14:31:02.856Z,63.83
2019-05-07T14:33:39.105Z,64.38
2019-05-07T14:36:09.375Z,64.35
2019-05-07T14:38:39.689Z,64.02
2019-05-07T14:41:08.325Z,62.94
2019-05-07T14:43:47.971Z,63.68
2019-05-07T14:46:16.685Z,63.89
2019-05-07T14:48:45.549Z,63.64
2019-05-07T14:51:14.246Z,64.04
2019-05-07T14:53:43.069Z,64.09
2019-05-07T14:56:14.452Z,63.95
2019-05-07T14:58:43.699Z,63.85
2019-05-07T15:01:12.365Z,63.89
2019-05-07T15:03:42.391Z,64.53
2019-05-07T15:06:12.588Z,64.50
2019-05-07T15:08:43.039Z,64.02
2019-05-07T15:11:12.045Z,64.62
2019-05-07T15:13:42.765Z,64.09
2019-05-07T15:16:12.463Z,65.43
2019-05-07T15:18:43.866Z,65.83
2019-05-07T15:21:13.385Z,65.74
2019-05-07T15:23:42.629Z,66.09
2019-05-07T15:26:12.809Z,66.06
2019-05-07T15:28:43.389Z,66.21
2019-05-07T15:31:14.031Z,66.34
2019-05-07T15:33:42.847Z,66.63
2019-05-07T15:36:13.024Z,65.78
2019-05-07T15:38:43.411Z,65.88
2019-05-07T15:41:13.187Z,65.77
2019-05-07T15:43:46.177Z,65.57
2019-05-07T15:46:15.178Z,65.79
2019-05-07T15:48:43.915Z,64.70
2019-05-07T15:51:16.525Z,64.70
2019-05-07T15:56:37.427Z,64.79
2019-05-07T15:59:06.124Z,64.24
2019-05-07T16:01:34.696Z,63.50
2019-05-07T16:04:03.345Z,62.98
2019-05-07T16:06:32.424Z,63.03
2019-05-07T16:09:02.469Z,63.52
2019-05-07T16:11:32.589Z,63.22
2019-05-07T16:14:05.975Z,62.69
2019-05-07T16:16:36.253Z,62.57
2019-05-07T16:19:12.908Z,62.39
2019-05-07T16:21:42.552Z,62.37
2019-05-07T16:24:12.110Z,62.45
2019-05-07T16:26:41.895Z,63.61
2019-05-07T16:29:13.025Z,62.19
2019-05-07T16:31:40.945Z,61.72
2019-05-07T16:34:09.557Z,62.81
2019-05-07T16:36:38.200Z,62.10
2019-05-07T16:39:07.683Z,61.93
2019-05-07T16:41:36.332Z,61.92
2019-05-07T16:44:05.366Z,62.16
2019-05-07T16:46:34.003Z,62.01
2019-05-07T16:49:02.638Z,63.01
2019-05-07T16:51:33.069Z,63.11
2019-05-07T16:54:03.372Z,61.99
2019-05-07T16:56:33.359Z,62.25
2019-05-07T16:59:03.832Z,62.39
2019-05-07T17:01:32.621Z,62.91
2019-05-07T17:04:02.759Z,63.09
2019-05-07T17:06:32.131Z,63.46
2019-05-07T17:09:05.728Z,62.78
2019-05-07T17:11:34.359Z,62.57
2019-05-07T17:14:03.019Z,62.58
2019-05-07T17:16:31.879Z,62.85
2019-05-07T17:19:02.457Z,62.45
2019-05-07T17:21:32.390Z,62.41
2019-05-07T17:24:02.530Z,62.23
2019-05-07T17:26:31.372Z,62.48
2019-05-07T17:29:00.029Z,62.20
2019-05-07T17:31:28.777Z,62.58
2019-05-07T17:33:57.417Z,62.41
2019-05-07T17:36:25.988Z,62.35
2019-05-07T17:38:54.668Z,62.97
2019-05-07T17:41:27.034Z,62.27
2019-05-07T17:43:53.746Z,62.07
2019-05-07T17:46:22.392Z,62.35
2019-05-07T17:48:52.425Z,61.96
2019-05-07T17:51:39.142Z,62.11
2019-05-07T17:54:07.778Z,62.56
2019-05-07T17:56:36.420Z,63.11
2019-05-07T17:59:05.044Z,61.85
2019-05-07T18:01:35.329Z,61.24
2019-05-07T18:04:04.108Z,61.79
2019-05-07T18:06:32.662Z,61.79
2019-05-07T18:09:02.950Z,62.02
2019-05-07T18:11:32.416Z,60.99
2019-05-07T18:14:02.613Z,61.26
2019-05-07T18:16:33.143Z,60.27
2019-05-07T18:19:02.208Z,60.54
2019-05-07T18:21:32.568Z,60.71
2019-05-07T18:24:13.045Z,60.48
2019-05-07T18:26:33.729Z,61.31
2019-05-07T18:29:02.603Z,60.55
2019-05-07T18:31:42.064Z,60.86
2019-05-07T18:34:12.835Z,61.24
2019-05-07T18:36:42.224Z,60.80
2019-05-07T18:39:10.989Z,60.75
2019-05-07T18:41:41.594Z,61.19
2019-05-07T18:44:13.616Z,61.19
2019-05-07T18:46:40.357Z,60.09
2019-05-07T18:49:08.849Z,60.13
2019-05-07T18:51:37.543Z,60.78
2019-05-07T18:54:06.391Z,60.78
2019-05-07T18:56:35.023Z,59.73
2019-05-07T18:59:03.735Z,59.73
2019-05-07T19:01:33.995Z,60.63
2019-05-07T19:04:02.703Z,60.09
2019-05-07T19:06:31.857Z,60.09
2019-05-07T19:09:00.685Z,60.08
2019-05-07T19:11:29.402Z,60.40
2019-05-07T19:13:58.932Z,59.62
2019-05-07T19:16:27.663Z,60.22
2019-05-07T19:18:56.327Z,60.35
2019-05-07T19:21:25.187Z,59.44
2019-05-07T19:23:53.742Z,59.81
2019-05-07T19:26:22.320Z,59.81
2019-05-07T19:28:50.957Z,59.80
2019-05-07T19:31:21.870Z,60.33
2019-05-07T19:33:49.897Z,59.73
2019-05-07T19:36:18.532Z,60.68
2019-05-07T19:38:47.201Z,60.68
2019-05-07T19:41:15.889Z,60.05
2019-05-07T19:43:44.617Z,60.50
2019-05-07T19:46:13.298Z,59.86
2019-05-07T19:48:44.081Z,60.08
2019-05-07T19:51:12.483Z,59.85
2019-05-07T19:53:41.966Z,59.83
2019-05-07T19:56:12.500Z,60.54
2019-05-07T19:58:41.918Z,60.06
2019-05-07T20:01:12.226Z,60.67
2019-05-07T20:03:43.286Z,60.07
2019-05-07T20:06:12.906Z,60.07
2019-05-07T20:08:43.748Z,59.38
2019-05-07T20:11:19.497Z,60.81
2019-05-07T20:13:48.245Z,59.89
2019-05-07T20:16:22.940Z,59.89
2019-05-07T20:18:52.403Z,59.61
2019-05-07T20:21:22.897Z,60.37
2019-05-07T20:23:52.652Z,59.92
2019-05-07T20:26:23.087Z,59.16
2019-05-07T20:28:52.694Z,59.22
2019-05-07T20:31:22.538Z,59.61
2019-05-07T20:33:53.021Z,59.61
2019-05-07T20:36:22.039Z,58.84
2019-05-07T20:38:52.188Z,59.06
2019-05-07T20:41:23.056Z,59.86
2019-05-07T20:43:52.387Z,60.22
2019-05-07T20:46:21.199Z,59.39
2019-05-07T20:48:49.826Z,59.47
2019-05-07T20:51:18.470Z,58.91
2019-05-07T20:54:07.186Z,59.33
2019-05-07T20:56:46.631Z,59.81
2019-05-07T20:59:14.372Z,60.18
2019-05-07T21:01:43.108Z,60.33
2019-05-07T21:04:12.949Z,59.23
2019-05-07T21:06:43.314Z,60.53
2019-05-07T21:09:12.706Z,59.90
2019-05-07T21:11:43.127Z,58.77
2019-05-07T21:14:12.756Z,59.07
2019-05-07T21:16:42.532Z,58.72
2019-05-07T21:19:12.921Z,58.61
2019-05-07T21:21:42.274Z,58.89
2019-05-07T21:24:13.096Z,58.16
2019-05-07T21:26:42.330Z,59.05
2019-05-07T21:29:13.630Z,58.66
2019-05-07T21:31:43.250Z,58.61
2019-05-07T21:34:12.564Z,58.28
2019-05-07T21:36:43.244Z,58.60
2019-05-07T21:39:13.137Z,57.71
2019-05-07T21:41:42.607Z,58.19
2019-05-07T21:44:11.597Z,58.73
2019-05-07T21:46:42.347Z,57.92
2019-05-07T21:49:12.265Z,58.14
2019-05-07T21:51:41.084Z,58.36
2019-05-07T21:54:12.164Z,58.42
2019-05-07T21:56:54.667Z,59.19
2019-05-07T21:59:25.382Z,58.00
2019-05-07T22:02:02.292Z,58.14
2019-05-07T22:04:30.975Z,57.60
2019-05-07T22:06:59.541Z,58.48
2019-05-07T22:09:28.197Z,58.01
2019-05-07T22:11:56.865Z,57.72
2019-05-07T22:14:25.506Z,57.20
2019-05-07T22:16:54.684Z,57.55
2019-05-07T22:19:23.345Z,57.59
2019-05-07T22:21:52.378Z,57.65
2019-05-07T22:24:22.618Z,57.48
2019-05-07T22:26:51.251Z,57.69
2019-05-07T22:29:19.891Z,57.57
2019-05-07T22:31:56.116Z,57.57
2019-05-07T22:34:26.334Z,57.93
2019-05-07T22:36:55.191Z,57.25
2019-05-07T22:39:23.885Z,57.75
2019-05-07T22:41:52.435Z,57.96
2019-05-07T22:44:23.847Z,57.51
2019-05-07T22:46:52.726Z,57.51
2019-05-07T22:49:22.881Z,58.29
2019-05-07T22:51:54.614Z,58.29
2019-05-07T22:54:22.679Z,58.42
2019-05-07T22:56:59.002Z,58.40
2019-05-07T22:59:28.560Z,58.93
2019-05-07T23:01:57.271Z,58.93
2019-05-07T23:04:25.876Z,58.47
2019-05-07T23:06:55.581Z,58.78
2019-05-07T23:09:24.226Z,59.33
2019-05-07T23:11:54.947Z,58.84
2019-05-07T23:14:23.673Z,59.22
2019-05-07T23:16:55.322Z,58.49
2019-05-07T23:19:22.520Z,58.66
2019-05-07T23:21:52.198Z,59.37
2019-05-07T23:24:22.642Z,60.59
2019-05-07T23:26:53.571Z,59.83
2019-05-07T23:29:23.315Z,59.14
2019-05-07T23:31:52.822Z,59.24
2019-05-07T23:34:22.922Z,58.86
2019-05-07T23:36:53.321Z,59.37
2019-05-07T23:39:24.184Z,59.13
2019-05-07T23:41:54.457Z,59.13
2019-05-07T23:44:23.153Z,59.06
2019-05-07T23:46:52.150Z,59.51
2019-05-07T23:49:23.244Z,59.21
2019-05-07T23:51:53.069Z,59.45
2019-05-07T23:54:23.168Z,60.08
2019-05-07T23:57:04.910Z,59.57
2019-05-07T23:59:22.472Z,60.15
